Terminal Aerodrome Forecast
Issued by NWS Greer, SC

Home | Current Version | Previous Version | Text Only | Print | Product List | Glossary On
Versions: 1 2 3 4 5 6 7 8 9 10 11 12 13 14 15 16 17 18 19 20 21 22 23 24 25 26 27 28 29 30 31 32 33 34 35 36 37 38 39 40
900
FTUS42 KGSP 240531
TAFAVL
TAF
KAVL 240531Z 2406/2506 00000KT P6SM SCT070
     FM241000 00000KT 5SM BR FEW070
      TEMPO 2410/2412 1SM BR BKN005
     FM241300 18004KT P6SM FEW070
     FM241700 19007KT P6SM FEW080
     FM250100 00000KT P6SM FEW090=

USA.gov is the U.S. government's official web portal to all federal, state and local government web resources and services.